createdAt,value
2023-05-16T00:01:41.951Z,66592.66
2023-05-16T00:06:45.941Z,66598.59
2023-05-16T00:11:51.804Z,66653.34
2023-05-16T00:16:57.772Z,66655.03
2023-05-16T00:22:01.902Z,66538.75
2023-05-16T00:27:08.042Z,66681.25
2023-05-16T00:32:12.077Z,66668.88
2023-05-16T00:37:17.303Z,66604.19
2023-05-16T00:42:22.677Z,66647.91
2023-05-16T00:47:26.715Z,66610.34
2023-05-16T00:52:31.031Z,66638.16
2023-05-16T00:57:36.314Z,66523.72
2023-05-16T01:02:40.355Z,66557.13
2023-05-16T01:07:44.650Z,66529.09
2023-05-16T01:13:02.477Z,66504.28
2023-05-16T01:18:13.362Z,66504.38
2023-05-16T01:23:35.423Z,66469.09
2023-05-16T01:28:42.450Z,66426.97
2023-05-16T01:33:46.756Z,66500.06
2023-05-16T01:39:02.736Z,66562.50
2023-05-16T01:44:17.985Z,66622.72
2023-05-16T01:49:31.163Z,66508.13
2023-05-16T01:54:39.539Z,66388.81
2023-05-16T01:59:46.834Z,66552.25
2023-05-16T02:04:51.703Z,66482.97
2023-05-16T02:09:55.804Z,66399.03
2023-05-16T02:15:01.234Z,66379.22
2023-05-16T02:20:07.248Z,66392.56
2023-05-16T02:25:11.588Z,66397.75
2023-05-16T02:30:17.965Z,66358.84
2023-05-16T02:35:22.928Z,66445.91
2023-05-16T02:40:26.842Z,66422.75
2023-05-16T02:45:32.667Z,66400.88
2023-05-16T02:50:37.607Z,66332.03
2023-05-16T02:55:42.097Z,66401.78
2023-05-16T03:00:47.707Z,66468.38
2023-05-16T03:05:53.287Z,66349.34
2023-05-16T03:11:00.928Z,66432.94
2023-05-16T03:16:10.710Z,66464.19
2023-05-16T03:21:17.893Z,66473.22
2023-05-16T03:26:25.055Z,66499.09
2023-05-16T03:31:36.554Z,66571.09
2023-05-16T03:36:44.919Z,66625.94
2023-05-16T03:41:52.629Z,66594.13
2023-05-16T03:47:00.256Z,66661.34
2023-05-16T03:52:06.729Z,66674.41
2023-05-16T03:57:11.963Z,66685.56
2023-05-16T04:02:20.502Z,66642.69
2023-05-16T04:07:27.855Z,66611.72
2023-05-16T04:12:34.711Z,66573.63
2023-05-16T04:17:43.148Z,66654.44
2023-05-16T04:22:50.579Z,66681.78
2023-05-16T04:27:58.017Z,66707.16
2023-05-16T04:33:06.847Z,66748.59
2023-05-16T04:38:13.446Z,66809.41
2023-05-16T04:43:19.296Z,66945.50
2023-05-16T04:48:28.432Z,66943.97
2023-05-16T04:53:36.235Z,66879.91
2023-05-16T04:58:43.693Z,66851.44
2023-05-16T05:03:49.877Z,66863.22
2023-05-16T05:08:56.599Z,66951.50
2023-05-16T05:14:04.239Z,67008.19
2023-05-16T05:19:11.463Z,66980.75
2023-05-16T05:24:17.697Z,66972.13
2023-05-16T05:29:25.003Z,66938.66
2023-05-16T05:34:33.827Z,67010.94
2023-05-16T05:39:40.785Z,67068.59
2023-05-16T05:44:47.634Z,67156.00
2023-05-16T05:49:56.181Z,67128.53
2023-05-16T05:55:03.519Z,67121.47
2023-05-16T06:00:12.194Z,67097.72
2023-05-16T06:05:19.234Z,67049.72
2023-05-16T06:10:24.331Z,67177.66
2023-05-16T06:15:29.348Z,67150.00
2023-05-16T06:20:37.015Z,67183.00
2023-05-16T06:25:43.354Z,67229.94
2023-05-16T06:30:52.457Z,67194.81
2023-05-16T06:36:00.656Z,67191.06
2023-05-16T06:41:07.916Z,67118.16
2023-05-16T06:46:15.544Z,67189.59
2023-05-16T06:51:23.641Z,67212.75
2023-05-16T06:56:32.098Z,67255.41
2023-05-16T07:01:39.713Z,67291.00
2023-05-16T07:06:48.494Z,67260.16
2023-05-16T07:11:54.503Z,67249.47
2023-05-16T07:17:01.402Z,67264.47
2023-05-16T07:22:09.443Z,67246.78
2023-05-16T07:27:16.418Z,67239.22
2023-05-16T07:32:22.580Z,67299.16
2023-05-16T07:37:29.900Z,67226.78
2023-05-16T07:42:37.424Z,67244.09
2023-05-16T07:47:44.813Z,67219.22
2023-05-16T07:52:53.826Z,67347.19
2023-05-16T07:58:01.464Z,67320.22
2023-05-16T08:03:09.041Z,67360.78
2023-05-16T08:08:19.126Z,67301.19
2023-05-16T08:13:29.685Z,67211.59
2023-05-16T08:18:35.781Z,67372.59
2023-05-16T08:23:43.973Z,67390.44
2023-05-16T08:28:50.778Z,67413.16
2023-05-16T08:33:55.785Z,67478.03
2023-05-16T08:39:03.915Z,67375.25
2023-05-16T08:44:13.778Z,67363.53
2023-05-16T08:49:21.419Z,67437.06
2023-05-16T08:54:30.451Z,67362.94
2023-05-16T08:59:38.138Z,67234.34
2023-05-16T09:04:47.572Z,67387.78
2023-05-16T09:09:55.269Z,67272.63
2023-05-16T09:15:04.401Z,67305.09
2023-05-16T09:20:12.411Z,67372.72
2023-05-16T09:25:30.118Z,67391.09
2023-05-16T09:30:39.964Z,67458.16
2023-05-16T09:35:47.245Z,67465.09
2023-05-16T09:40:55.947Z,67564.16
2023-05-16T09:46:04.156Z,67620.41
2023-05-16T09:51:11.041Z,67579.28
2023-05-16T09:56:19.948Z,67612.28
2023-05-16T10:01:29.115Z,67597.06
2023-05-16T10:06:34.618Z,67657.22
2023-05-16T10:11:41.569Z,67702.66
2023-05-16T10:16:50.492Z,67479.66
2023-05-16T10:22:02.750Z,67583.00
2023-05-16T10:27:12.886Z,67620.91
2023-05-16T10:32:21.300Z,67562.38
2023-05-16T10:37:30.083Z,67574.91
2023-05-16T10:42:38.465Z,67488.84
2023-05-16T10:47:53.844Z,67595.56
2023-05-16T10:53:13.206Z,67566.66
2023-05-16T10:58:41.574Z,67624.19
2023-05-16T11:04:10.507Z,67691.28
2023-05-16T11:09:27.503Z,67701.16
2023-05-16T11:14:44.321Z,67460.66
2023-05-16T11:19:51.135Z,67513.16
2023-05-16T11:25:03.461Z,67564.06
2023-05-16T11:30:18.186Z,67513.63
2023-05-16T11:35:24.367Z,67512.28
2023-05-16T11:40:29.625Z,67567.91
2023-05-16T11:45:37.216Z,67500.75
2023-05-16T11:50:42.809Z,67576.03
2023-05-16T11:55:54.786Z,67659.47
2023-05-16T12:01:02.315Z,67653.47
2023-05-16T12:06:07.313Z,67666.47
2023-05-16T12:11:12.541Z,67528.94
2023-05-16T12:16:18.635Z,67507.31
2023-05-16T12:21:23.612Z,67565.75
2023-05-16T12:26:30.972Z,67556.53
2023-05-16T12:31:42.069Z,67567.84
2023-05-16T12:36:54.067Z,67428.81
2023-05-16T12:42:06.663Z,67451.53
2023-05-16T12:47:16.397Z,67418.44
2023-05-16T12:52:21.915Z,67479.78
2023-05-16T12:57:26.454Z,67340.72
2023-05-16T13:02:33.607Z,67495.25
2023-05-16T13:07:40.648Z,67460.25
2023-05-16T13:12:46.249Z,67450.03
2023-05-16T13:17:53.341Z,67449.50
2023-05-16T13:23:00.065Z,67480.19
2023-05-16T13:28:06.970Z,67437.47
2023-05-16T13:33:14.175Z,67469.97
2023-05-16T13:38:19.297Z,67498.72
2023-05-16T13:43:23.620Z,67404.53
2023-05-16T13:48:30.839Z,67415.84
2023-05-16T13:53:39.755Z,67271.59
2023-05-16T14:03:59.442Z,67285.13
2023-05-16T14:09:04.617Z,67313.13
2023-05-16T14:14:08.911Z,67286.16
2023-05-16T14:19:17.281Z,67200.25
2023-05-16T14:24:22.650Z,67217.59
2023-05-16T14:29:27.046Z,67238.06
2023-05-16T14:34:33.719Z,67145.16
2023-05-16T14:39:37.999Z,67134.88
2023-05-16T14:44:42.087Z,67104.19
2023-05-16T14:49:47.593Z,67077.22
2023-05-16T14:54:51.483Z,67083.75
2023-05-16T14:59:55.599Z,67115.03
2023-05-16T15:05:01.365Z,67157.09
2023-05-16T15:10:07.018Z,67059.91
2023-05-16T15:15:14.187Z,67063.19
2023-05-16T15:20:23.455Z,67078.22
2023-05-16T15:25:28.053Z,67014.66
2023-05-16T15:30:33.573Z,67042.31
2023-05-16T15:35:40.895Z,67087.94
2023-05-16T15:40:47.068Z,67111.75
2023-05-16T15:45:53.699Z,67092.78
2023-05-16T15:50:59.860Z,67057.88
2023-05-16T15:56:05.069Z,67107.97
2023-05-16T16:01:09.493Z,67071.41
2023-05-16T16:06:15.239Z,67074.94
2023-05-16T16:11:21.556Z,67042.16
2023-05-16T16:16:25.890Z,67041.22
2023-05-16T16:21:33.510Z,67059.44
2023-05-16T16:26:38.421Z,67052.47
2023-05-16T16:31:42.539Z,67010.88
2023-05-16T16:36:48.106Z,67000.63
2023-05-16T16:41:54.064Z,66999.00
2023-05-16T16:46:59.763Z,67008.19
2023-05-16T16:52:06.656Z,67051.34
2023-05-16T16:57:11.494Z,67002.78
2023-05-16T17:02:15.860Z,66950.59
2023-05-16T17:07:21.646Z,66987.53
2023-05-16T17:12:28.613Z,66942.44
2023-05-16T17:17:32.661Z,66992.53
2023-05-16T17:22:38.213Z,66967.22
2023-05-16T17:27:43.297Z,66971.59
2023-05-16T17:32:47.723Z,67009.41
2023-05-16T17:37:53.060Z,66975.31
2023-05-16T17:42:57.220Z,66962.91
2023-05-16T17:48:01.213Z,66934.88
2023-05-16T17:53:07.830Z,66884.81
2023-05-16T17:58:11.915Z,66910.16
2023-05-16T18:03:16.950Z,66907.47
2023-05-16T18:08:22.350Z,66939.28
2023-05-16T18:13:26.403Z,66916.00
2023-05-16T18:18:30.693Z,66946.19
2023-05-16T18:23:39.505Z,66966.53
2023-05-16T18:28:43.580Z,66932.25
2023-05-16T18:33:47.787Z,66947.34
2023-05-16T18:38:53.370Z,66959.66
2023-05-16T18:43:57.406Z,66955.28
2023-05-16T18:49:01.929Z,66970.44
2023-05-16T18:54:07.524Z,66975.22
2023-05-16T18:59:11.367Z,66960.19
2023-05-16T19:04:15.434Z,66916.53
2023-05-16T19:09:20.827Z,66952.13
2023-05-16T19:14:27.006Z,66989.31
2023-05-16T19:19:31.376Z,67019.50
2023-05-16T19:24:36.930Z,67020.50
2023-05-16T19:29:40.905Z,67018.00
2023-05-16T19:34:45.057Z,67045.94
2023-05-16T19:39:50.466Z,67042.75
2023-05-16T19:44:54.571Z,66987.63
2023-05-16T19:49:58.569Z,66974.75
2023-05-16T19:55:04.739Z,66969.28
2023-05-16T20:00:09.933Z,66946.19
2023-05-16T20:05:19.978Z,66892.84
2023-05-16T20:10:25.913Z,66885.28
2023-05-16T20:15:29.829Z,66855.59
2023-05-16T20:20:39.171Z,66881.00
2023-05-16T20:25:44.999Z,66899.38
2023-05-16T20:30:49.302Z,66884.81
2023-05-16T20:35:53.603Z,66923.00
2023-05-16T20:40:59.339Z,66984.91
2023-05-16T20:46:10.085Z,66942.56
2023-05-16T20:51:14.243Z,66903.59
2023-05-16T20:56:22.484Z,66918.69
2023-05-16T21:01:28.002Z,66910.16
2023-05-16T21:06:34.976Z,66910.63
2023-05-16T21:11:40.499Z,66870.22
2023-05-16T21:16:44.805Z,66885.34
2023-05-16T21:21:51.198Z,66906.84
2023-05-16T21:27:17.759Z,66914.84
2023-05-16T21:32:23.403Z,66894.38
2023-05-16T21:37:28.113Z,66898.22
2023-05-16T21:42:47.953Z,66938.09
2023-05-16T21:47:57.362Z,66850.22
2023-05-16T21:53:01.600Z,66863.16
2023-05-16T21:58:07.336Z,66852.97
2023-05-16T22:03:11.951Z,66848.69
2023-05-16T22:08:16.407Z,66836.81
2023-05-16T22:13:22.225Z,66827.69
2023-05-16T22:18:26.454Z,66781.94
2023-05-16T22:23:31.181Z,66785.66
2023-05-16T22:28:36.952Z,66750.66
2023-05-16T22:33:41.179Z,66789.91
2023-05-16T22:38:45.864Z,66744.75
2023-05-16T22:43:51.967Z,66750.13
2023-05-16T22:48:57.818Z,66763.59
2023-05-16T22:54:02.075Z,66782.88
2023-05-16T22:59:08.020Z,66783.50
2023-05-16T23:04:12.106Z,66761.50
2023-05-16T23:09:16.206Z,66719.38
2023-05-16T23:14:21.997Z,66728.13
2023-05-16T23:19:26.291Z,66738.38
2023-05-16T23:24:31.013Z,66767.91
2023-05-16T23:29:36.728Z,66784.56
2023-05-16T23:34:40.673Z,66807.72
2023-05-16T23:39:46.185Z,66783.13
2023-05-16T23:44:51.869Z,66791.03
2023-05-16T23:49:56.207Z,66745.22
2023-05-16T23:55:00.360Z,66837.91
